This is the latest recevied weather packets stored in our database for station/object LX2ZZ-13. If no packets are shown the sender has not sent any weather packets the latest 10 day(s).
| Time | Temp. | Humidity | Pressure | Rain* | Wind** | Luminosity | Snow |
|---|---|---|---|---|---|---|---|
| 1777731315 | 25.56° C | 42% | 1016.4 hPa | 0 mm | - | - | - |
| 1777730169 | 26.11° C | 39% | 1016.8 hPa | 0 mm | - | - | - |
| 1777725344 | 25.56° C | 47% | 1017.8 hPa | 0 mm | - | - | - |
| 1777724741 | 25° C | 46% | 1017.8 hPa | 0 mm | - | - | - |
| 1777722972 | 24.44° C | 51% | 1018.3 hPa | 0 mm | - | - | - |
| 1777721726 | 24.44° C | 49% | 1018.7 hPa | 0 mm | - | - | - |
| 1777719917 | 23.33° C | 49% | 1018.9 hPa | 0 mm | - | - | - |
| 1777716358 | 21.67° C | 50% | 1019.6 hPa | 0 mm | - | - | - |
| 1777712136 | 19.44° C | 63% | 1019.8 hPa | 0 mm | - | - | - |
| 1777710930 | 16.67° C | 76% | 1020 hPa | 0 mm | - | - | - |
| 1777701943 | 11.67° C | 77% | 1020.5 hPa | 0 mm | - | - | - |
| 1777699531 | 10° C | 83% | 1021.1 hPa | 0 mm | - | - | - |
| 1777691148 | 6.11° C | 88% | 1021.1 hPa | 0 mm | - | - | - |
| 1777690544 | 6.67° C | 87% | 1021.1 hPa | 0 mm | - | - | - |
| 1777681527 | 5.56° C | 88% | 1021.6 hPa | 0 mm | - | - | - |
| 1777680321 | 7.22° C | 82% | 1021.7 hPa | 0 mm | - | - | - |
| 1777671937 | 5.56° C | 84% | 1022.2 hPa | 0 mm | - | - | - |
| 1777667172 | 9.44° C | 68% | 1022.1 hPa | 0 mm | - | - | - |
| 1777665363 | 8.33° C | 72% | 1021.8 hPa | 0 mm | - | - | - |
| 1777662347 | 11.67° C | 64% | 1021.6 hPa | 0 mm | - | - | - |
| 1777656919 | 20.56° C | 29% | 1021.3 hPa | 0 mm | - | - | - |
| 1777646725 | 23.89° C | 24% | 1022.4 hPa | 0 mm | - | - | - |
| 1777644916 | 23.33° C | 25% | 1022.4 hPa | 0 mm | - | - | - |
| 1777644373 | 23.33° C | 25% | 1022.6 hPa | 0 mm | - | - | - |
| 1777643770 | 22.78° C | 28% | 1022.7 hPa | 0 mm | - | - | - |
* Rain latest hour (hover to see other rain measurements)
** Current wind speed in m/s (hover to see current wind gust speed)